createdAt,value
2023-07-30T00:00:51.559Z,14.69
2023-07-30T00:03:18.386Z,14.64
2023-07-30T00:05:55.680Z,14.56
2023-07-30T00:08:22.849Z,14.55
2023-07-30T00:10:49.887Z,14.54
2023-07-30T00:13:16.611Z,14.51
2023-07-30T00:15:43.185Z,14.46
2023-07-30T00:18:09.735Z,14.48
2023-07-30T00:20:37.256Z,14.42
2023-07-30T00:23:04.042Z,14.48
2023-07-30T00:25:30.707Z,14.45
2023-07-30T00:27:57.427Z,14.42
2023-07-30T00:30:24.124Z,14.40
2023-07-30T00:32:50.714Z,14.41
2023-07-30T00:35:17.345Z,14.45
2023-07-30T00:37:43.996Z,14.47
2023-07-30T00:40:11.123Z,14.51
2023-07-30T00:42:37.843Z,14.52
2023-07-30T00:45:05.754Z,14.52
2023-07-30T00:47:32.579Z,14.48
2023-07-30T00:49:59.647Z,14.39
2023-07-30T00:52:27.160Z,14.39
2023-07-30T00:54:57.979Z,14.30
2023-07-30T00:57:24.877Z,14.31
2023-07-30T00:59:52.189Z,14.32
2023-07-30T01:02:18.994Z,14.28
2023-07-30T01:04:45.718Z,14.29
2023-07-30T01:07:12.641Z,14.32
2023-07-30T01:09:39.568Z,14.35
2023-07-30T01:12:07.233Z,14.38
2023-07-30T01:14:34.888Z,14.40
2023-07-30T01:17:01.488Z,14.36
2023-07-30T01:19:28.026Z,14.39
2023-07-30T01:21:54.519Z,14.39
2023-07-30T01:24:21.029Z,14.36
2023-07-30T01:26:54.529Z,14.34
2023-07-30T01:29:28.677Z,14.35
2023-07-30T01:32:05.348Z,14.38
2023-07-30T01:34:36.749Z,14.35
2023-07-30T01:37:05.740Z,14.35
2023-07-30T01:39:33.884Z,14.37
2023-07-30T01:42:00.403Z,14.41
2023-07-30T01:44:26.955Z,14.43
2023-07-30T01:46:53.595Z,14.47
2023-07-30T01:49:20.094Z,14.46
2023-07-30T01:51:47.044Z,14.53
2023-07-30T01:54:13.564Z,14.56
2023-07-30T01:56:40.321Z,14.58
2023-07-30T01:59:06.950Z,14.59
2023-07-30T02:01:33.674Z,14.64
2023-07-30T02:04:00.437Z,14.65
2023-07-30T02:06:27.013Z,14.66
2023-07-30T02:08:53.503Z,14.67
2023-07-30T02:11:20.093Z,14.68
2023-07-30T02:13:46.759Z,14.72
2023-07-30T02:16:13.326Z,14.71
2023-07-30T02:18:39.835Z,14.72
2023-07-30T02:21:06.342Z,14.72
2023-07-30T02:23:32.854Z,14.72
2023-07-30T02:25:59.357Z,14.71
2023-07-30T02:28:26.057Z,14.72
2023-07-30T02:30:52.729Z,14.70
2023-07-30T02:33:19.323Z,14.66
2023-07-30T02:35:45.845Z,14.66
2023-07-30T02:38:12.316Z,14.64
2023-07-30T02:40:38.954Z,14.61
2023-07-30T02:43:05.721Z,14.59
2023-07-30T02:45:32.260Z,14.56
2023-07-30T02:47:58.797Z,14.57
2023-07-30T02:50:25.414Z,14.55
2023-07-30T02:52:52.087Z,14.57
2023-07-30T02:55:19.685Z,14.57
2023-07-30T02:57:46.484Z,14.55
2023-07-30T03:00:13.812Z,14.51
2023-07-30T03:02:41.564Z,14.48
2023-07-30T03:05:08.447Z,14.48
2023-07-30T03:07:34.897Z,14.47
2023-07-30T03:10:01.485Z,14.43
2023-07-30T03:12:28.052Z,14.40
2023-07-30T03:14:54.576Z,14.37
2023-07-30T03:17:21.137Z,14.37
2023-07-30T03:19:47.873Z,14.33
2023-07-30T03:22:14.434Z,14.32
2023-07-30T03:24:40.981Z,14.34
2023-07-30T03:27:07.678Z,14.28
2023-07-30T03:29:34.205Z,14.29
2023-07-30T03:32:00.680Z,14.29
2023-07-30T03:34:27.201Z,14.29
2023-07-30T03:36:53.767Z,14.30
2023-07-30T03:39:20.283Z,14.29
2023-07-30T03:41:46.838Z,14.24
2023-07-30T03:44:13.319Z,14.28
2023-07-30T03:46:39.902Z,14.26
2023-07-30T03:49:06.471Z,14.24
2023-07-30T03:51:33.352Z,14.20
2023-07-30T03:54:00.020Z,14.21
2023-07-30T03:56:26.590Z,14.19
2023-07-30T03:58:53.054Z,14.17
2023-07-30T04:01:19.643Z,14.17
2023-07-30T04:03:46.230Z,14.16
2023-07-30T04:06:12.888Z,14.21
2023-07-30T04:08:39.434Z,14.25
2023-07-30T04:11:06.186Z,14.23
2023-07-30T04:13:32.778Z,14.24
2023-07-30T04:15:59.390Z,14.28
2023-07-30T04:18:26.011Z,14.29
2023-07-30T04:20:57.087Z,14.26
2023-07-30T04:23:23.834Z,14.31
2023-07-30T04:25:51.401Z,14.34
2023-07-30T04:28:18.427Z,14.39
2023-07-30T04:30:45.648Z,14.42
2023-07-30T04:33:12.286Z,14.50
2023-07-30T04:35:38.757Z,14.53
2023-07-30T04:38:05.262Z,14.61
2023-07-30T04:40:31.779Z,14.68
2023-07-30T04:42:58.292Z,14.73
2023-07-30T04:45:24.842Z,14.80
2023-07-30T04:47:51.429Z,14.83
2023-07-30T04:50:18.013Z,14.88
2023-07-30T04:52:44.522Z,14.92
2023-07-30T04:55:11.024Z,14.95
2023-07-30T04:57:37.536Z,14.98
2023-07-30T05:00:04.540Z,15.03
2023-07-30T05:02:31.283Z,15.04
2023-07-30T05:04:57.828Z,15.10
2023-07-30T05:07:24.578Z,15.16
2023-07-30T05:09:51.049Z,15.21
2023-07-30T05:12:17.630Z,15.29
2023-07-30T05:14:44.162Z,15.38
2023-07-30T05:17:10.671Z,15.42
2023-07-30T05:19:37.178Z,15.51
2023-07-30T05:22:03.880Z,15.57
2023-07-30T05:24:30.338Z,15.64
2023-07-30T05:26:56.802Z,15.69
2023-07-30T05:29:23.414Z,15.74
2023-07-30T05:31:50.162Z,15.81
2023-07-30T05:34:16.847Z,15.85
2023-07-30T05:36:43.530Z,15.88
2023-07-30T05:39:10.054Z,15.90
2023-07-30T05:41:36.923Z,15.95
2023-07-30T05:44:03.774Z,15.98
2023-07-30T05:46:30.522Z,16.03
2023-07-30T05:48:57.170Z,16.07
2023-07-30T05:51:23.803Z,16.14
2023-07-30T05:53:50.370Z,16.18
2023-07-30T05:56:19.467Z,16.21
2023-07-30T05:58:46.469Z,16.30
2023-07-30T06:01:13.108Z,16.38
2023-07-30T06:03:39.693Z,16.35
2023-07-30T06:06:06.193Z,16.38
2023-07-30T06:08:32.796Z,16.44
2023-07-30T06:11:04.426Z,16.55
2023-07-30T06:13:31.218Z,16.54
2023-07-30T06:15:57.782Z,16.52
2023-07-30T06:18:24.392Z,16.47
2023-07-30T06:20:50.936Z,16.47
2023-07-30T06:23:17.442Z,16.48
2023-07-30T06:25:43.951Z,16.56
2023-07-30T06:28:10.528Z,16.62
2023-07-30T06:30:37.881Z,16.67
2023-07-30T06:33:04.408Z,16.67
2023-07-30T06:35:30.920Z,16.83
2023-07-30T06:37:57.440Z,16.89
2023-07-30T06:40:24.492Z,16.82
2023-07-30T06:42:51.025Z,16.85
2023-07-30T06:45:17.828Z,16.92
2023-07-30T06:47:44.385Z,17.02
2023-07-30T06:50:11.281Z,16.99
2023-07-30T06:52:38.180Z,17.04
2023-07-30T06:55:05.023Z,17.07
2023-07-30T06:57:31.588Z,17.03
2023-07-30T06:59:59.176Z,16.94
2023-07-30T07:02:25.787Z,16.91
2023-07-30T07:04:52.567Z,16.92
2023-07-30T07:07:19.219Z,16.84
2023-07-30T07:09:45.759Z,16.87
2023-07-30T07:12:12.355Z,16.87
2023-07-30T07:14:40.279Z,16.98
2023-07-30T07:17:06.944Z,16.94
2023-07-30T07:19:37.466Z,16.88
2023-07-30T07:22:05.671Z,16.85
2023-07-30T07:24:32.423Z,16.88
2023-07-30T07:26:59.308Z,17.00
2023-07-30T07:29:26.052Z,17.20
2023-07-30T07:31:52.582Z,17.22
2023-07-30T07:34:19.104Z,17.16
2023-07-30T07:36:45.639Z,17.24
2023-07-30T07:39:12.588Z,17.50
2023-07-30T07:41:39.500Z,17.67
2023-07-30T07:44:06.209Z,17.64
2023-07-30T07:46:32.816Z,17.67
2023-07-30T07:48:59.875Z,17.58
2023-07-30T07:51:26.711Z,17.74
2023-07-30T07:53:53.654Z,18.07
2023-07-30T07:56:20.429Z,18.34
2023-07-30T07:58:47.112Z,18.06
2023-07-30T08:01:13.650Z,17.91
2023-07-30T08:03:40.323Z,18.12
2023-07-30T08:06:07.346Z,17.97
2023-07-30T08:08:33.979Z,18.21
2023-07-30T08:11:06.804Z,19.01
2023-07-30T08:13:33.401Z,19.01
2023-07-30T08:16:00.091Z,19.46
2023-07-30T08:18:28.696Z,19.65
2023-07-30T08:20:55.379Z,20.69
2023-07-30T08:23:21.911Z,20.62
2023-07-30T08:25:48.567Z,19.64
2023-07-30T08:28:15.167Z,18.97
2023-07-30T08:30:41.818Z,18.78
2023-07-30T08:33:08.364Z,18.71
2023-07-30T08:35:35.020Z,18.37
2023-07-30T08:38:01.718Z,18.15
2023-07-30T08:40:28.377Z,18.21
2023-07-30T08:42:55.287Z,18.13
2023-07-30T08:45:22.213Z,18.20
2023-07-30T08:47:49.390Z,18.24
2023-07-30T08:50:16.159Z,18.39
2023-07-30T08:52:43.727Z,18.51
2023-07-30T08:55:11.487Z,18.56
2023-07-30T08:57:39.069Z,18.82
2023-07-30T09:00:12.473Z,19.47
2023-07-30T09:02:44.382Z,19.90
2023-07-30T09:05:12.923Z,21.11
2023-07-30T09:07:39.483Z,20.48
2023-07-30T09:10:06.536Z,20.03
2023-07-30T09:12:34.896Z,19.84
2023-07-30T09:15:04.321Z,19.53
2023-07-30T09:17:30.866Z,19.66
2023-07-30T09:20:00.539Z,19.75
2023-07-30T09:22:28.487Z,19.63
2023-07-30T09:24:56.266Z,19.37
2023-07-30T09:27:26.254Z,19.21
2023-07-30T09:29:54.426Z,19.19
2023-07-30T09:32:22.082Z,19.17
2023-07-30T09:34:49.214Z,19.00
2023-07-30T09:37:16.228Z,19.04
2023-07-30T09:39:42.960Z,19.04
2023-07-30T09:42:09.537Z,19.03
2023-07-30T09:44:39.054Z,19.36
2023-07-30T09:47:07.329Z,19.58
2023-07-30T09:49:34.239Z,19.87
2023-07-30T09:52:01.292Z,20.54
2023-07-30T09:54:27.958Z,20.25
2023-07-30T09:56:54.533Z,20.10
2023-07-30T09:59:21.097Z,20.21
2023-07-30T10:01:54.523Z,20.07
2023-07-30T10:04:21.873Z,20.25
2023-07-30T10:07:06.135Z,20.92
2023-07-30T10:09:36.503Z,20.72
2023-07-30T10:12:04.831Z,21.25
2023-07-30T10:14:31.598Z,21.64
2023-07-30T10:17:01.750Z,20.99
2023-07-30T10:19:29.710Z,21.29
2023-07-30T10:22:19.586Z,21.19
2023-07-30T10:25:08.674Z,21.55
2023-07-30T10:27:40.809Z,21.78
2023-07-30T10:30:13.037Z,21.41
2023-07-30T10:32:58.759Z,21.06
2023-07-30T10:35:47.198Z,20.59
2023-07-30T10:38:15.548Z,20.79
2023-07-30T10:40:42.412Z,21.01
2023-07-30T10:43:18.728Z,20.91
2023-07-30T10:45:52.023Z,21.13
2023-07-30T10:48:19.079Z,20.77
2023-07-30T10:50:49.655Z,20.45
2023-07-30T10:53:17.581Z,20.36
2023-07-30T10:55:44.248Z,21.19
2023-07-30T10:58:11.432Z,21.78
2023-07-30T11:00:39.090Z,22.13
2023-07-30T11:03:05.710Z,22.72
2023-07-30T11:05:32.318Z,22.93
2023-07-30T11:07:59.004Z,22.98
2023-07-30T11:10:25.811Z,23.27
2023-07-30T11:12:52.468Z,23.27
2023-07-30T11:15:19.131Z,22.26
2023-07-30T11:17:48.645Z,21.55
2023-07-30T11:20:28.246Z,21.28
2023-07-30T11:22:55.133Z,21.33
2023-07-30T11:25:21.891Z,21.82
2023-07-30T11:27:49.664Z,21.56
2023-07-30T11:30:16.297Z,21.38
2023-07-30T11:32:43.945Z,21.65
2023-07-30T11:35:10.728Z,21.59
2023-07-30T11:37:41.002Z,21.41
2023-07-30T11:40:10.328Z,21.43
2023-07-30T11:42:37.901Z,21.70
2023-07-30T11:45:21.176Z,21.97
2023-07-30T11:47:48.814Z,22.08
2023-07-30T11:50:16.399Z,22.33
2023-07-30T11:52:57.313Z,22.78
2023-07-30T11:55:25.458Z,22.84
2023-07-30T11:57:52.739Z,22.44
2023-07-30T12:00:22.537Z,22.34
2023-07-30T12:02:49.279Z,22.10
2023-07-30T12:05:17.979Z,22.03
2023-07-30T12:07:44.563Z,21.92
2023-07-30T12:10:12.893Z,22.08
2023-07-30T12:12:46.569Z,21.80
2023-07-30T12:15:14.012Z,21.54
2023-07-30T12:17:40.610Z,21.37
2023-07-30T12:20:07.852Z,21.11
2023-07-30T12:22:36.414Z,21.52
2023-07-30T12:25:06.765Z,22.30
2023-07-30T12:27:33.336Z,23.07
2023-07-30T12:29:59.829Z,23.20
2023-07-30T12:32:29.234Z,23.22
2023-07-30T12:34:56.046Z,22.87
2023-07-30T12:37:22.918Z,22.61
2023-07-30T12:39:49.616Z,22.54
2023-07-30T12:42:16.298Z,22.15
2023-07-30T12:44:43.961Z,21.69
2023-07-30T12:47:10.637Z,21.84
2023-07-30T12:49:37.279Z,22.53
2023-07-30T12:52:04.042Z,22.48
2023-07-30T12:54:30.627Z,22.18
2023-07-30T12:56:57.128Z,21.84
2023-07-30T12:59:24.027Z,21.66
2023-07-30T13:01:50.621Z,22.27
2023-07-30T13:04:18.031Z,22.32
2023-07-30T13:06:44.657Z,21.68
2023-07-30T13:09:11.142Z,22.20
2023-07-30T13:11:38.389Z,22.82
2023-07-30T13:14:05.302Z,22.94
2023-07-30T13:16:33.342Z,23.15
2023-07-30T13:19:00.180Z,23.56
2023-07-30T13:21:26.728Z,22.67
2023-07-30T13:23:53.356Z,22.55
2023-07-30T13:26:20.090Z,23.06
2023-07-30T13:28:46.605Z,22.99
2023-07-30T13:31:13.210Z,22.70
2023-07-30T13:33:39.831Z,22.41
2023-07-30T13:36:07.233Z,21.95
2023-07-30T13:38:33.781Z,21.98
2023-07-30T13:41:00.256Z,21.58
2023-07-30T13:43:26.803Z,21.75
2023-07-30T13:45:53.876Z,22.37
2023-07-30T13:48:21.117Z,22.65
2023-07-30T13:50:47.737Z,22.75
2023-07-30T13:53:14.874Z,22.17
2023-07-30T13:55:41.427Z,21.98
2023-07-30T13:58:08.166Z,22.56
2023-07-30T14:00:34.721Z,22.92
2023-07-30T14:03:01.412Z,23.14
2023-07-30T14:05:29.599Z,23.13
2023-07-30T14:07:57.866Z,23.09
2023-07-30T14:10:25.068Z,23.07
2023-07-30T14:12:51.686Z,22.90
2023-07-30T14:15:18.443Z,22.87
2023-07-30T14:17:45.057Z,22.44
2023-07-30T14:20:11.901Z,22.06
2023-07-30T14:22:38.508Z,21.85
2023-07-30T14:25:05.581Z,21.60
2023-07-30T14:27:32.353Z,21.47
2023-07-30T14:29:58.900Z,21.48
2023-07-30T14:32:25.472Z,21.79
2023-07-30T14:34:52.019Z,21.95
2023-07-30T14:37:18.520Z,22.02
2023-07-30T14:39:45.665Z,22.06
2023-07-30T14:42:12.344Z,21.78
2023-07-30T14:44:39.554Z,21.42
2023-07-30T14:47:06.468Z,21.20
2023-07-30T14:49:33.064Z,21.11
2023-07-30T14:51:59.603Z,21.28
2023-07-30T14:54:26.272Z,21.89
2023-07-30T14:56:52.935Z,22.03
2023-07-30T14:59:19.674Z,22.13
2023-07-30T15:01:46.239Z,21.99
2023-07-30T15:04:12.782Z,21.72
2023-07-30T15:06:39.670Z,21.58
2023-07-30T15:09:06.714Z,21.24
2023-07-30T15:11:33.236Z,21.33
2023-07-30T15:13:59.716Z,21.14
2023-07-30T15:16:26.360Z,21.01
2023-07-30T15:18:53.040Z,21.16
2023-07-30T15:21:20.347Z,21.17
2023-07-30T15:23:47.072Z,20.92
2023-07-30T15:26:13.661Z,20.91
2023-07-30T15:28:41.908Z,20.89
2023-07-30T15:31:08.533Z,20.95
2023-07-30T15:33:36.562Z,20.93
2023-07-30T15:36:03.990Z,20.90
2023-07-30T15:38:30.523Z,20.83
2023-07-30T15:40:57.041Z,20.85
2023-07-30T15:43:23.816Z,20.70
2023-07-30T15:45:53.993Z,20.57
2023-07-30T15:48:20.793Z,20.55
2023-07-30T15:50:47.326Z,20.66
2023-07-30T15:53:13.877Z,20.63
2023-07-30T15:55:40.352Z,20.56
2023-07-30T15:58:07.105Z,20.56
2023-07-30T16:00:34.384Z,20.54
2023-07-30T16:03:04.992Z,20.59
2023-07-30T16:05:31.672Z,20.61
2023-07-30T16:07:58.272Z,20.75
2023-07-30T16:10:24.808Z,21.20
2023-07-30T16:12:51.465Z,21.86
2023-07-30T16:15:18.111Z,21.61
2023-07-30T16:17:44.709Z,21.33
2023-07-30T16:20:11.651Z,21.16
2023-07-30T16:22:38.335Z,20.96
2023-07-30T16:25:07.724Z,20.90
2023-07-30T16:27:35.480Z,21.14
2023-07-30T16:30:02.740Z,21.52
2023-07-30T16:32:29.281Z,21.56
2023-07-30T16:34:55.802Z,21.56
2023-07-30T16:37:23.443Z,21.44
2023-07-30T16:39:50.228Z,21.32
2023-07-30T16:42:16.734Z,21.22
2023-07-30T16:44:43.313Z,20.95
2023-07-30T16:47:09.882Z,20.73
2023-07-30T16:49:36.477Z,20.69
2023-07-30T16:52:02.986Z,20.59
2023-07-30T16:54:29.509Z,20.39
2023-07-30T16:56:56.008Z,20.39
2023-07-30T16:59:22.533Z,20.30
2023-07-30T17:01:49.003Z,20.13
2023-07-30T17:04:15.566Z,20.03
2023-07-30T17:06:42.177Z,20.08
2023-07-30T17:09:08.776Z,20.09
2023-07-30T17:11:37.677Z,20.05
2023-07-30T17:14:04.410Z,19.96
2023-07-30T17:16:30.958Z,19.78
2023-07-30T17:18:57.543Z,19.70
2023-07-30T17:21:24.433Z,19.59
2023-07-30T17:23:51.003Z,19.46
2023-07-30T17:26:17.534Z,19.45
2023-07-30T17:28:44.085Z,19.39
2023-07-30T17:31:13.872Z,19.24
2023-07-30T17:33:40.540Z,19.14
2023-07-30T17:36:09.373Z,19.06
2023-07-30T17:38:36.439Z,18.99
2023-07-30T17:41:03.091Z,18.94
2023-07-30T17:43:30.041Z,18.83
2023-07-30T17:45:56.638Z,18.81
2023-07-30T17:48:23.719Z,18.82
2023-07-30T17:50:50.417Z,18.85
2023-07-30T17:53:16.942Z,18.77
2023-07-30T17:55:44.401Z,18.58
2023-07-30T17:58:11.997Z,18.58
2023-07-30T18:00:46.310Z,18.48
2023-07-30T18:03:15.742Z,18.43
2023-07-30T18:05:48.181Z,18.43
2023-07-30T18:08:16.340Z,18.34
2023-07-30T18:10:45.140Z,18.28
2023-07-30T18:13:12.458Z,18.20
2023-07-30T18:15:38.958Z,18.14
2023-07-30T18:18:05.613Z,18.15
2023-07-30T18:20:32.900Z,17.93
2023-07-30T18:22:59.596Z,17.85
2023-07-30T18:25:26.609Z,17.73
2023-07-30T18:27:53.154Z,17.69
2023-07-30T18:30:19.800Z,17.63
2023-07-30T18:32:46.477Z,17.61
2023-07-30T18:35:13.581Z,17.52
2023-07-30T18:37:40.205Z,17.52
2023-07-30T18:40:08.108Z,17.52
2023-07-30T18:42:36.725Z,17.50
2023-07-30T18:45:03.883Z,17.48
2023-07-30T18:47:30.545Z,17.50
2023-07-30T18:49:57.331Z,17.53
2023-07-30T18:52:23.891Z,17.53
2023-07-30T18:54:50.593Z,17.47
2023-07-30T18:57:17.119Z,17.38
2023-07-30T18:59:43.716Z,17.36
2023-07-30T19:02:11.258Z,17.42
2023-07-30T19:04:37.844Z,17.36
2023-07-30T19:07:04.630Z,17.30
2023-07-30T19:09:31.241Z,17.34
2023-07-30T19:11:57.818Z,17.30
2023-07-30T19:14:24.363Z,17.31
2023-07-30T19:16:51.000Z,17.34
2023-07-30T19:19:17.674Z,17.30
2023-07-30T19:21:44.404Z,17.27
2023-07-30T19:24:11.820Z,17.21
2023-07-30T19:26:38.710Z,17.15
2023-07-30T19:29:05.389Z,17.20
2023-07-30T19:31:32.078Z,16.98
2023-07-30T19:34:11.761Z,16.89
2023-07-30T19:36:40.018Z,16.89
2023-07-30T19:39:06.839Z,16.71
2023-07-30T19:41:33.908Z,16.52
2023-07-30T19:44:00.644Z,16.47
2023-07-30T19:46:27.334Z,16.44
2023-07-30T19:48:54.734Z,16.37
2023-07-30T19:51:21.885Z,16.38
2023-07-30T19:53:48.554Z,16.41
2023-07-30T19:56:15.156Z,16.33
2023-07-30T19:58:41.705Z,16.29
2023-07-30T20:01:08.373Z,16.26
2023-07-30T20:03:34.892Z,16.23
2023-07-30T20:06:03.675Z,16.26
2023-07-30T20:08:30.524Z,16.27
2023-07-30T20:10:58.474Z,16.18
2023-07-30T20:13:25.439Z,16.10
2023-07-30T20:15:53.160Z,16.05
2023-07-30T20:18:19.766Z,16.04
2023-07-30T20:20:46.392Z,16.00
2023-07-30T20:23:13.230Z,15.98
2023-07-30T20:25:40.169Z,15.99
2023-07-30T20:28:08.249Z,15.95
2023-07-30T20:30:36.311Z,15.87
2023-07-30T20:33:03.295Z,15.82
2023-07-30T20:35:30.060Z,15.83
2023-07-30T20:38:00.282Z,15.72
2023-07-30T20:40:28.004Z,15.72
2023-07-30T20:42:55.693Z,15.76
2023-07-30T20:45:23.599Z,15.75
2023-07-30T20:47:51.459Z,15.72
2023-07-30T20:50:19.088Z,15.73
2023-07-30T20:52:49.021Z,15.64
2023-07-30T20:55:17.098Z,15.66
2023-07-30T20:57:43.799Z,15.65
2023-07-30T21:00:11.354Z,15.59
2023-07-30T21:02:38.889Z,15.63
2023-07-30T21:05:06.168Z,15.55
2023-07-30T21:07:32.825Z,15.47
2023-07-30T21:09:59.414Z,15.49
2023-07-30T21:12:26.141Z,15.46
2023-07-30T21:14:52.713Z,15.47
2023-07-30T21:17:20.313Z,15.49
2023-07-30T21:19:47.808Z,15.41
2023-07-30T21:22:14.468Z,15.38
2023-07-30T21:24:41.194Z,15.32
2023-07-30T21:27:08.577Z,15.30
2023-07-30T21:29:35.233Z,15.27
2023-07-30T21:32:01.933Z,15.22
2023-07-30T21:34:28.555Z,15.23
2023-07-30T21:36:55.072Z,15.20
2023-07-30T21:39:21.653Z,15.21
2023-07-30T21:41:48.330Z,15.17
2023-07-30T21:44:14.859Z,15.12
2023-07-30T21:46:41.941Z,15.11
2023-07-30T21:49:09.005Z,15.05
2023-07-30T21:51:35.588Z,14.96
2023-07-30T21:54:02.143Z,14.86
2023-07-30T21:56:28.683Z,14.83
2023-07-30T21:58:55.292Z,14.83
2023-07-30T22:01:21.836Z,14.75
2023-07-30T22:03:48.480Z,14.74
2023-07-30T22:06:15.032Z,14.65
2023-07-30T22:08:42.010Z,14.61
2023-07-30T22:11:08.639Z,14.58
2023-07-30T22:13:35.231Z,14.54
2023-07-30T22:16:01.825Z,14.52
2023-07-30T22:18:28.361Z,14.48
2023-07-30T22:20:54.877Z,14.53
2023-07-30T22:23:21.368Z,14.56
2023-07-30T22:25:48.105Z,14.52
2023-07-30T22:28:14.634Z,14.48
2023-07-30T22:30:41.677Z,14.53
2023-07-30T22:33:08.604Z,14.55
2023-07-30T22:35:36.436Z,14.56
2023-07-30T22:38:03.161Z,14.51
2023-07-30T22:40:30.687Z,14.51
2023-07-30T22:42:57.393Z,14.51
2023-07-30T22:45:24.141Z,14.50
2023-07-30T22:47:50.710Z,14.52
2023-07-30T22:50:17.396Z,14.49
2023-07-30T22:52:43.940Z,14.50
2023-07-30T22:55:10.494Z,14.52
2023-07-30T22:57:37.130Z,14.50
2023-07-30T23:00:05.696Z,14.53
2023-07-30T23:02:32.740Z,14.47
2023-07-30T23:04:59.375Z,14.43
2023-07-30T23:07:25.860Z,14.46
2023-07-30T23:09:52.446Z,14.50
2023-07-30T23:12:19.166Z,14.51
2023-07-30T23:14:45.691Z,14.49
2023-07-30T23:17:12.180Z,14.47
2023-07-30T23:19:38.862Z,14.46
2023-07-30T23:22:05.507Z,14.46
2023-07-30T23:24:33.754Z,14.45
2023-07-30T23:27:00.267Z,14.41
2023-07-30T23:29:26.788Z,14.44
2023-07-30T23:31:54.319Z,14.45
2023-07-30T23:34:21.050Z,14.46
2023-07-30T23:36:47.633Z,14.45
2023-07-30T23:39:14.276Z,14.50
2023-07-30T23:41:40.790Z,14.52
2023-07-30T23:44:07.327Z,14.52
2023-07-30T23:46:33.871Z,14.55
2023-07-30T23:49:00.411Z,14.60
2023-07-30T23:51:26.968Z,14.59
2023-07-30T23:53:54.116Z,14.61
2023-07-30T23:56:20.830Z,14.65
2023-07-30T23:58:47.456Z,14.67
